Time;durP1;ratioP1;P1;durP2;ratioP2;P2;SDS_P1;SDS_P2;PMS_P1;PMS_P2;Temp;Humidity;BMP_temperature;BMP_pressure;BME280_temperature;BME280_humidity;BME280_pressure;Samples;Min_cycle;Max_cycle;Signal;HPM_P1;HPM_P2
2021/05/25 00:02:20;;;;;;;2.17;1.50;;;11.00;79.20;;;;;;5060563;28;20199;-89
2021/05/25 00:04:46;;;;;;;2.03;1.50;;;11.00;77.80;;;;;;5063321;28;20208;-89
2021/05/25 00:07:12;;;;;;;2.50;1.37;;;11.00;77.50;;;;;;5079871;28;20187;-89
2021/05/25 00:09:38;;;;;;;1.50;1.30;;;11.00;77.50;;;;;;5042741;28;20210;-89
2021/05/25 00:12:04;;;;;;;2.30;1.33;;;11.00;77.30;;;;;;5061296;28;20191;-89
2021/05/25 00:14:30;;;;;;;1.57;1.40;;;10.90;78.10;;;;;;5058657;28;20191;-89
2021/05/25 00:16:57;;;;;;;3.63;1.50;;;10.90;78.30;;;;;;5066666;28;20199;-89
2021/05/25 00:19:22;;;;;;;1.63;1.40;;;10.90;77.70;;;;;;5080034;28;20238;-89
2021/05/25 00:21:48;;;;;;;1.50;1.40;;;10.80;78.10;;;;;;5079888;28;20172;-89
2021/05/25 00:24:14;;;;;;;1.80;1.40;;;10.80;78.20;;;;;;5080178;28;20176;-88
2021/05/25 00:26:40;;;;;;;2.13;1.60;;;10.70;77.70;;;;;;5079872;28;20199;-89
2021/05/25 00:29:06;;;;;;;1.90;1.40;;;10.80;77.60;;;;;;5045774;28;20212;-89
2021/05/25 00:31:32;;;;;;;1.40;1.30;;;10.80;77.00;;;;;;5076186;28;20615;-89
2021/05/25 00:33:58;;;;;;;1.60;1.40;;;10.80;76.80;;;;;;5060580;28;20180;-89
2021/05/25 00:36:26;;;;;;;3.17;1.60;;;10.70;77.40;;;;;;5060273;28;20200;-89
2021/05/25 00:38:52;;;;;;;2.27;1.50;;;10.70;76.50;;;;;;5062417;28;20221;-88
2021/05/25 00:41:18;;;;;;;1.47;1.17;;;10.70;76.00;;;;;;5080123;28;20176;-88
2021/05/25 00:43:44;;;;;;;2.27;1.40;;;10.60;73.70;;;;;;5079725;28;20176;-89
2021/05/25 00:46:10;;;;;;;1.73;1.50;;;10.70;74.70;;;;;;5061619;28;20183;-89
2021/05/25 00:48:35;;;;;;;3.70;1.63;;;10.60;74.20;;;;;;5061649;28;20358;-89
2021/05/25 00:51:01;;;;;;;3.90;2.27;;;10.70;73.80;;;;;;5079185;28;20172;-89
2021/05/25 00:53:27;;;;;;;2.07;1.47;;;10.70;72.70;;;;;;5079800;28;20206;-89
2021/05/25 00:55:53;;;;;;;1.93;1.60;;;10.70;72.40;;;;;;5079815;28;20179;-89
2021/05/25 00:58:19;;;;;;;3.07;1.50;;;10.70;72.90;;;;;;5045746;28;20216;-89
2021/05/25 01:00:48;;;;;;;2.37;1.40;;;10.70;71.80;;;;;;5064982;28;20256;-89
2021/05/25 01:03:22;;;;;;;1.87;1.30;;;10.70;71.60;;;;;;5075626;28;20241;-88
2021/05/25 01:05:48;;;;;;;2.80;1.37;;;10.70;71.70;;;;;;5055244;28;20176;-89
2021/05/25 01:08:14;;;;;;;2.50;1.50;;;10.60;72.70;;;;;;5059765;28;20215;-89
2021/05/25 01:10:46;;;;;;;1.93;1.40;;;10.60;72.60;;;;;;5059381;28;20192;-89
2021/05/25 01:13:16;;;;;;;3.43;1.50;;;10.60;72.70;;;;;;5059489;28;20172;-89
2021/05/25 01:15:42;;;;;;;4.67;1.83;;;10.50;73.70;;;;;;5059479;28;20180;-89
2021/05/25 01:18:08;;;;;;;1.50;1.40;;;10.50;74.30;;;;;;5057690;28;20212;-89
2021/05/25 01:20:37;;;;;;;2.03;1.40;;;10.50;75.90;;;;;;5041536;28;20180;-89
2021/05/25 01:23:06;;;;;;;4.03;1.67;;;10.60;76.50;;;;;;5059753;28;20198;-89
2021/05/25 01:25:32;;;;;;;6.20;1.90;;;10.50;77.10;;;;;;5063131;28;20229;-89
2021/05/25 01:28:01;;;;;;;2.23;1.50;;;10.50;77.90;;;;;;5027937;28;20231;-89
2021/05/25 01:30:29;;;;;;;1.57;1.33;;;10.40;78.40;;;;;;5063075;28;20196;-89
2021/05/25 01:32:56;;;;;;;3.53;1.67;;;10.40;78.30;;;;;;5039867;28;20183;-89
2021/05/25 01:35:23;;;;;;;7.67;1.73;;;10.30;79.00;;;;;;5074016;28;20255;-90
2021/05/25 01:37:50;;;;;;;5.27;1.70;;;10.30;79.20;;;;;;5062273;28;20219;-89
2021/05/25 01:40:16;;;;;;;3.40;1.50;;;10.40;79.60;;;;;;5067729;28;20195;-89
2021/05/25 01:42:42;;;;;;;1.50;1.40;;;10.30;79.60;;;;;;5066574;28;20195;-89
2021/05/25 01:45:12;;;;;;;2.37;1.50;;;10.30;79.50;;;;;;5079648;28;20203;-89
2021/05/25 01:47:38;;;;;;;2.37;1.60;;;10.30;79.90;;;;;;5097833;28;20248;-89
2021/05/25 01:50:14;;;;;;;3.67;1.60;;;10.30;79.40;;;;;;5083806;28;20188;-89
2021/05/25 01:52:49;;;;;;;2.23;1.60;;;10.40;79.30;;;;;;5050497;28;20186;-88
2021/05/25 01:55:45;;;;;;;2.37;1.50;;;10.30;80.00;;;;;;5044567;28;20186;-89
2021/05/25 01:58:14;;;;;;;1.57;1.43;;;10.30;78.90;;;;;;5062521;28;20212;-88
2021/05/25 02:00:42;;;;;;;3.10;1.80;;;10.30;78.50;;;;;;5064623;28;20184;-88
2021/05/25 02:03:08;;;;;;;1.97;1.37;;;10.30;77.70;;;;;;5046823;28;20192;-89
2021/05/25 02:05:34;;;;;;;1.40;1.30;;;10.30;77.90;;;;;;5043965;28;20202;-88
2021/05/25 02:08:02;;;;;;;1.77;1.60;;;10.40;76.90;;;;;;5064224;28;20294;-89
2021/05/25 02:10:33;;;;;;;2.30;1.50;;;10.50;76.70;;;;;;5082024;28;20232;-88
2021/05/25 02:13:03;;;;;;;2.37;1.40;;;10.50;77.30;;;;;;5082559;28;20222;-87
2021/05/25 02:15:30;;;;;;;3.53;1.57;;;10.50;75.70;;;;;;5064242;28;20270;-88
2021/05/25 02:17:56;;;;;;;2.77;1.40;;;10.50;75.30;;;;;;5082031;28;20218;-88
2021/05/25 02:20:22;;;;;;;3.73;1.50;;;10.60;74.80;;;;;;5082505;28;20217;-88
2021/05/25 02:22:48;;;;;;;6.83;1.67;;;10.60;74.30;;;;;;5083603;28;20237;-88
2021/05/25 02:25:13;;;;;;;1.97;1.40;;;10.60;74.70;;;;;;5082695;28;20240;-88
2021/05/25 02:27:39;;;;;;;7.87;1.90;;;10.60;74.80;;;;;;5065307;28;20202;-88
2021/05/25 02:30:06;;;;;;;2.53;1.50;;;10.60;74.90;;;;;;5084912;28;20622;-88
2021/05/25 02:32:32;;;;;;;2.83;1.70;;;10.50;75.70;;;;;;5060772;28;20184;-88
2021/05/25 02:34:58;;;;;;;2.73;1.50;;;10.50;75.80;;;;;;5056974;28;20277;-88
2021/05/25 02:37:24;;;;;;;3.60;1.60;;;10.50;76.40;;;;;;5086858;28;20223;-88
2021/05/25 02:39:49;;;;;;;1.90;1.50;;;10.50;75.30;;;;;;5084471;28;20555;-88
2021/05/25 02:42:15;;;;;;;2.40;1.50;;;10.60;75.10;;;;;;5073774;28;20187;-88
2021/05/25 02:44:41;;;;;;;3.17;1.53;;;10.60;76.40;;;;;;5064330;28;20515;-88
2021/05/25 02:47:07;;;;;;;2.03;1.80;;;10.50;76.00;;;;;;5064652;28;20187;-88
2021/05/25 02:49:32;;;;;;;2.53;1.30;;;10.50;75.70;;;;;;5066258;28;20211;-88
2021/05/25 02:51:58;;;;;;;2.37;1.60;;;10.60;75.40;;;;;;5084110;28;20184;-88
2021/05/25 02:54:24;;;;;;;5.67;1.67;;;10.60;75.10;;;;;;5081519;28;20249;-88
2021/05/25 02:56:49;;;;;;;2.53;1.50;;;10.60;74.70;;;;;;5045893;28;20275;-88
2021/05/25 02:59:15;;;;;;;1.97;1.33;;;10.60;75.40;;;;;;5064205;28;20278;-88
2021/05/25 03:01:41;;;;;;;2.87;1.60;;;10.60;75.20;;;;;;5064186;28;20738;-88
2021/05/25 03:04:06;;;;;;;2.93;1.50;;;10.60;75.20;;;;;;5046334;28;20176;-88
2021/05/25 03:06:32;;;;;;;2.13;1.70;;;10.50;75.30;;;;;;5069544;28;20650;-87
2021/05/25 03:08:58;;;;;;;2.90;1.30;;;10.60;74.20;;;;;;5065454;28;20290;-87
2021/05/25 03:11:23;;;;;;;2.27;1.40;;;10.50;75.50;;;;;;5054246;28;20189;-88
2021/05/25 03:13:51;;;;;;;5.07;1.83;;;10.60;74.80;;;;;;5063000;28;20176;-88
2021/05/25 03:16:17;;;;;;;1.80;1.30;;;10.50;75.70;;;;;;5062973;28;20203;-88
2021/05/25 03:18:43;;;;;;;2.67;1.30;;;10.50;76.40;;;;;;5045803;28;20735;-88
2021/05/25 03:21:09;;;;;;;2.40;1.50;;;10.40;76.20;;;;;;5063646;28;20184;-88
2021/05/25 03:23:35;;;;;;;1.73;1.30;;;10.40;76.50;;;;;;5063722;28;20172;-88
2021/05/25 03:26:02;;;;;;;1.60;1.27;;;10.40;75.50;;;;;;5063445;28;20176;-88
2021/05/25 03:28:28;;;;;;;1.50;1.40;;;10.40;76.00;;;;;;5061935;28;20227;-88
2021/05/25 03:30:54;;;;;;;2.30;1.47;;;10.40;75.60;;;;;;5062087;28;20180;-88
2021/05/25 03:33:19;;;;;;;3.87;1.60;;;10.40;75.90;;;;;;5076159;28;20187;-88
2021/05/25 03:35:45;;;;;;;1.63;1.40;;;10.40;75.40;;;;;;5066447;28;20229;-87
2021/05/25 03:38:12;;;;;;;2.30;1.50;;;10.40;75.50;;;;;;5049142;28;20211;-88
2021/05/25 03:40:38;;;;;;;2.50;1.27;;;10.40;74.60;;;;;;5067006;28;20191;-88
2021/05/25 03:43:05;;;;;;;2.40;1.37;;;10.40;74.90;;;;;;5047149;28;20184;-88
2021/05/25 03:45:31;;;;;;;3.10;1.80;;;10.30;75.00;;;;;;5046095;28;20187;-88
2021/05/25 03:47:57;;;;;;;2.73;1.60;;;10.30;75.20;;;;;;5064570;28;20207;-88
2021/05/25 03:50:23;;;;;;;2.83;1.50;;;10.30;75.10;;;;;;5064107;28;20177;-88
2021/05/25 03:52:51;;;;;;;4.40;1.60;;;10.30;75.00;;;;;;5063082;28;20191;-88
2021/05/25 04:00:47;;;;;;;5.07;1.40;;;10.40;75.00;;;;;;5071311;28;20194;-88
2021/05/25 04:03:13;;;;;;;2.60;1.40;;;10.30;75.60;;;;;;5072629;28;20179;-88
2021/05/25 04:05:39;;;;;;;2.73;1.40;;;10.30;75.40;;;;;;5084799;28;20264;-88
2021/05/25 04:08:05;;;;;;;4.50;1.50;;;10.20;74.70;;;;;;5065995;28;20237;-88
2021/05/25 04:10:31;;;;;;;1.87;1.20;;;10.20;75.10;;;;;;5085272;28;20187;-88
2021/05/25 04:12:56;;;;;;;1.53;1.20;;;10.20;75.60;;;;;;5084532;28;20214;-88
2021/05/25 04:15:25;;;;;;;1.30;1.17;;;10.20;75.20;;;;;;5084404;28;20271;-88
2021/05/25 04:17:53;;;;;;;1.87;1.50;;;10.20;75.00;;;;;;5016598;28;20212;-88
2021/05/25 04:20:19;;;;;;;1.50;1.40;;;10.20;75.60;;;;;;5081825;28;20175;-88
2021/05/25 04:22:45;;;;;;;1.90;1.37;;;10.20;75.40;;;;;;5069578;28;20175;-89
2021/05/25 04:25:11;;;;;;;1.57;1.20;;;10.20;75.50;;;;;;5080271;28;20363;-88
2021/05/25 04:27:37;;;;;;;1.40;1.30;;;10.10;75.60;;;;;;5071325;28;20187;-88
2021/05/25 04:30:05;;;;;;;1.23;1.17;;;10.10;76.10;;;;;;5063692;28;20199;-88
2021/05/25 04:32:31;;;;;;;2.40;1.30;;;10.20;75.40;;;;;;5077117;28;20167;-89
2021/05/25 04:34:57;;;;;;;1.43;1.30;;;10.20;76.30;;;;;;5077658;28;20192;-89
2021/05/25 04:37:23;;;;;;;1.90;1.30;;;10.20;75.60;;;;;;5070033;28;20207;-88
2021/05/25 04:39:48;;;;;;;2.40;1.43;;;10.00;76.20;;;;;;5045047;28;20219;-89
2021/05/25 04:42:14;;;;;;;2.37;1.30;;;10.10;77.10;;;;;;5062119;28;20227;-88
2021/05/25 04:44:39;;;;;;;6.13;1.70;;;10.10;75.90;;;;;;5044571;28;20188;-88
2021/05/25 04:47:05;;;;;;;1.87;1.30;;;10.10;74.90;;;;;;5061251;28;20701;-88
2021/05/25 04:49:33;;;;;;;4.47;1.40;;;10.00;75.00;;;;;;5045414;28;20208;-89
2021/05/25 04:51:59;;;;;;;1.30;1.20;;;10.00;75.00;;;;;;5065371;28;20270;-88
2021/05/25 04:54:25;;;;;;;2.33;1.27;;;10.10;75.20;;;;;;5049021;28;20221;-88
2021/05/25 04:56:53;;;;;;;2.73;1.43;;;10.10;74.80;;;;;;5058128;28;20204;-88
2021/05/25 04:59:19;;;;;;;1.60;1.20;;;10.10;75.00;;;;;;5065292;28;20223;-88
2021/05/25 05:01:44;;;;;;;1.57;1.30;;;10.10;74.80;;;;;;5079249;28;20183;-89
2021/05/25 05:04:10;;;;;;;2.33;1.20;;;10.20;73.60;;;;;;5069765;28;20183;-88
2021/05/25 05:06:36;;;;;;;3.20;1.43;;;10.00;74.50;;;;;;5087422;28;20184;-87
2021/05/25 05:09:02;;;;;;;1.40;1.00;;;9.90;75.10;;;;;;5085563;28;20207;-87
2021/05/25 05:11:28;;;;;;;3.27;1.10;;;10.10;74.00;;;;;;5087313;28;20537;-87
2021/05/25 05:13:53;;;;;;;1.77;1.43;;;10.10;73.80;;;;;;5068968;28;20196;-87
2021/05/25 05:16:19;;;;;;;1.20;1.10;;;10.10;74.00;;;;;;5050001;28;20204;-87
2021/05/25 05:18:45;;;;;;;1.10;1.00;;;10.20;73.60;;;;;;5066989;28;20196;-87
2021/05/25 05:21:10;;;;;;;1.50;1.40;;;10.10;73.20;;;;;;5066838;28;20176;-87
2021/05/25 05:23:36;;;;;;;1.63;1.00;;;10.20;72.60;;;;;;5066975;28;20189;-87
2021/05/25 05:26:04;;;;;;;2.10;1.27;;;10.20;72.60;;;;;;5114353;22;20240;-88
2021/05/25 05:28:30;;;;;;;1.60;1.23;;;10.20;72.30;;;;;;5056970;28;20332;-88
2021/05/25 05:30:56;;;;;;;1.17;0.93;;;10.20;72.40;;;;;;5073831;28;20182;-88
2021/05/25 05:33:22;;;;;;;2.23;1.43;;;10.20;72.60;;;;;;5078764;28;20209;-88
2021/05/25 05:35:47;;;;;;;1.97;1.60;;;10.30;72.00;;;;;;5083798;28;20204;-87
2021/05/25 05:38:13;;;;;;;4.13;1.50;;;10.40;71.80;;;;;;5066216;28;20208;-89
2021/05/25 05:40:39;;;;;;;5.23;1.70;;;10.40;71.50;;;;;;5067441;28;20177;-87
2021/05/25 05:43:06;;;;;;;2.10;1.57;;;10.40;71.60;;;;;;5049045;28;20180;-88
2021/05/25 05:45:31;;;;;;;1.30;1.20;;;10.50;71.00;;;;;;5068035;28;20674;-88
2021/05/25 05:47:57;;;;;;;2.57;1.67;;;10.50;69.60;;;;;;5047533;28;20191;-87
2021/05/25 05:50:23;;;;;;;3.10;1.40;;;10.60;68.80;;;;;;5065692;28;20243;-88
2021/05/25 05:52:49;;;;;;;2.27;1.30;;;10.60;68.30;;;;;;5032577;28;20181;-87
2021/05/25 05:55:15;;;;;;;1.80;1.30;;;10.50;69.20;;;;;;5045629;28;20240;-88
2021/05/25 05:57:42;;;;;;;2.63;1.43;;;10.70;69.20;;;;;;5045159;28;20228;-88
2021/05/25 06:00:08;;;;;;;2.83;1.63;;;10.70;68.00;;;;;;5027953;28;20268;-88
2021/05/25 06:02:34;;;;;;;1.97;1.60;;;10.70;68.50;;;;;;5026363;28;20234;-88
2021/05/25 06:05:00;;;;;;;3.10;1.30;;;10.70;68.70;;;;;;5049640;28;20185;-88
2021/05/25 06:07:26;;;;;;;3.90;1.50;;;10.70;68.50;;;;;;5051144;28;20231;-88
2021/05/25 06:09:55;;;;;;;1.53;1.10;;;10.80;68.80;;;;;;5045224;28;20187;-88
2021/05/25 06:12:20;;;;;;;3.37;1.30;;;10.80;68.50;;;;;;5032229;28;20185;-89
2021/05/25 06:14:46;;;;;;;2.43;1.30;;;10.70;69.20;;;;;;5052260;28;20186;-88
2021/05/25 06:17:12;;;;;;;1.53;1.43;;;10.60;70.20;;;;;;5042702;28;20574;-88
2021/05/25 06:19:37;;;;;;;3.87;1.50;;;10.60;71.90;;;;;;5038165;28;20195;-88
2021/05/25 06:22:03;;;;;;;2.33;1.40;;;10.60;72.30;;;;;;5047307;28;20223;-89
2021/05/25 06:24:29;;;;;;;2.27;1.37;;;10.50;71.80;;;;;;5023230;28;20177;-88
2021/05/25 06:26:54;;;;;;;2.10;1.67;;;10.50;74.30;;;;;;5063682;28;20228;-88
2021/05/25 06:29:20;;;;;;;3.93;1.50;;;10.50;72.90;;;;;;5054756;28;20242;-89
2021/05/25 06:31:46;;;;;;;2.77;1.40;;;10.40;73.40;;;;;;5056204;28;20224;-89
2021/05/25 06:34:12;;;;;;;1.70;1.30;;;10.30;72.90;;;;;;5028661;28;20177;-86
2021/05/25 06:36:37;;;;;;;3.37;1.40;;;10.30;74.30;;;;;;5027715;28;20231;-88
2021/05/25 06:39:04;;;;;;;1.63;1.27;;;10.30;76.70;;;;;;5063915;28;20188;-87
2021/05/25 06:41:30;;;;;;;2.30;1.40;;;10.30;76.40;;;;;;5066465;28;20172;-87
2021/05/25 06:43:55;;;;;;;1.70;1.20;;;10.30;77.20;;;;;;5061954;28;20543;-86
2021/05/25 06:46:21;;;;;;;2.37;1.27;;;10.20;76.40;;;;;;5046116;28;20204;-86
2021/05/25 06:48:47;;;;;;;2.40;1.20;;;10.20;78.40;;;;;;5063700;28;20187;-86
2021/05/25 06:51:13;;;;;;;2.10;1.20;;;10.20;80.10;;;;;;5057395;28;20184;-87
2021/05/25 06:53:39;;;;;;;2.03;1.53;;;10.10;77.60;;;;;;5056719;28;20188;-89
2021/05/25 06:56:05;;;;;;;3.03;1.47;;;10.10;80.60;;;;;;5032512;28;20201;-87
2021/05/25 06:58:32;;;;;;;4.67;1.50;;;10.10;80.10;;;;;;5051678;28;20205;-86
2021/05/25 07:00:58;;;;;;;3.17;1.83;;;10.10;82.40;;;;;;5060644;28;20252;-87
2021/05/25 07:03:24;;;;;;;2.73;1.30;;;10.00;80.80;;;;;;5031489;28;20192;-86
2021/05/25 07:05:50;;;;;;;2.37;1.43;;;9.90;83.50;;;;;;5061267;28;20212;-87
2021/05/25 07:08:15;;;;;;;3.70;1.50;;;9.90;81.90;;;;;;5057400;28;20199;-89
2021/05/25 07:10:41;;;;;;;2.83;1.47;;;9.80;82.90;;;;;;5078465;28;20195;-88
2021/05/25 07:13:11;;;;;;;1.90;1.37;;;9.80;82.20;;;;;;5047999;28;20192;-87
2021/05/25 07:15:37;;;;;;;3.87;1.20;;;9.80;84.60;;;;;;5055409;28;20184;-86
2021/05/25 07:18:03;;;;;;;5.20;1.87;;;9.80;84.30;;;;;;5064034;28;20211;-89
2021/05/25 07:20:29;;;;;;;3.73;1.50;;;9.70;85.50;;;;;;5046757;28;20187;-87
2021/05/25 07:22:55;;;;;;;2.83;1.70;;;9.80;83.70;;;;;;5053297;28;20185;-88
2021/05/25 07:25:23;;;;;;;3.60;1.77;;;9.90;85.40;;;;;;5036293;28;20259;-87
2021/05/25 07:27:49;;;;;;;4.23;1.83;;;9.80;84.40;;;;;;5060429;28;20196;-88
2021/05/25 07:30:16;;;;;;;3.43;1.80;;;9.80;84.00;;;;;;5044896;28;20197;-87
2021/05/25 07:32:42;;;;;;;3.10;1.60;;;9.80;85.80;;;;;;5056186;28;20199;-90
2021/05/25 07:35:09;;;;;;;2.73;1.80;;;9.70;86.40;;;;;;5060177;28;20569;-87
2021/05/25 07:37:35;;;;;;;2.97;1.67;;;9.80;86.30;;;;;;5064777;28;20243;-87
2021/05/25 07:40:02;;;;;;;2.23;1.70;;;9.80;87.20;;;;;;5064396;28;20207;-87
2021/05/25 07:42:28;;;;;;;4.13;1.80;;;9.80;87.90;;;;;;5041234;28;20184;-88
2021/05/25 07:44:53;;;;;;;4.37;1.70;;;9.80;88.20;;;;;;5057743;28;20167;-88
2021/05/25 07:47:22;;;;;;;4.50;1.80;;;10.00;86.50;;;;;;5066790;28;20698;-89
2021/05/25 07:49:48;;;;;;;5.23;1.93;;;10.00;85.10;;;;;;5050343;28;20185;-89
2021/05/25 07:52:15;;;;;;;2.33;1.60;;;10.00;85.20;;;;;;5063373;28;20192;-88
2021/05/25 07:54:41;;;;;;;2.97;1.60;;;10.00;85.70;;;;;;5048042;28;20598;-88
2021/05/25 07:57:07;;;;;;;3.80;1.80;;;10.20;86.70;;;;;;5064147;28;20199;-88
2021/05/25 07:59:32;;;;;;;3.67;1.80;;;10.10;86.40;;;;;;5043070;28;20706;-89
2021/05/25 08:01:58;;;;;;;3.97;1.90;;;10.10;85.50;;;;;;5025131;28;20181;-88
2021/05/25 08:04:24;;;;;;;3.00;1.90;;;10.10;84.60;;;;;;5046854;28;20184;-89
2021/05/25 08:06:50;;;;;;;3.17;1.60;;;10.00;87.00;;;;;;5047803;28;20205;-88
2021/05/25 08:09:16;;;;;;;2.37;1.80;;;10.10;85.40;;;;;;5035223;28;20207;-88
2021/05/25 08:11:43;;;;;;;2.30;1.83;;;10.10;86.60;;;;;;5028508;28;20715;-89
2021/05/25 08:14:10;;;;;;;5.07;2.97;;;10.00;88.00;;;;;;5043726;28;20177;-87
2021/05/25 08:16:38;;;;;;;1.90;1.60;;;10.00;87.40;;;;;;5052613;28;20200;-87
2021/05/25 08:19:11;;;;;;;5.30;1.87;;;10.00;88.80;;;;;;5052076;28;20180;-87
2021/05/25 08:21:38;;;;;;;4.03;2.43;;;10.00;88.30;;;;;;5043708;28;20179;-87
2021/05/25 08:24:06;;;;;;;5.47;2.90;;;10.00;87.80;;;;;;5059514;28;20180;-89
2021/05/25 08:26:32;;;;;;;4.83;2.33;;;10.00;88.50;;;;;;5053878;28;20212;-87
2021/05/25 08:28:58;;;;;;;2.10;1.53;;;10.10;88.20;;;;;;5067091;28;20188;-87
2021/05/25 08:31:23;;;;;;;7.50;2.73;;;10.10;85.50;;;;;;5052992;28;20185;-87
2021/05/25 08:33:50;;;;;;;3.77;2.00;;;10.10;86.20;;;;;;5071762;28;20481;-88
2021/05/25 08:36:17;;;;;;;3.93;1.70;;;10.00;86.10;;;;;;5048694;28;20234;-88
2021/05/25 08:38:43;;;;;;;4.03;2.03;;;9.90;86.70;;;;;;5051114;28;20244;-87
2021/05/25 08:41:11;;;;;;;3.33;1.57;;;10.10;85.40;;;;;;5027949;28;20690;-88
2021/05/25 08:43:36;;;;;;;2.63;1.73;;;10.10;86.30;;;;;;5056567;28;20202;-88
2021/05/25 08:46:03;;;;;;;4.10;1.77;;;10.20;83.20;;;;;;5040830;28;20208;-86
2021/05/25 08:48:30;;;;;;;3.03;1.70;;;10.30;83.20;;;;;;5055755;28;20195;-89
2021/05/25 08:51:01;;;;;;;6.47;5.70;;;10.50;84.30;;;;;;5039614;28;20185;-87
2021/05/25 08:53:28;;;;;;;5.33;1.83;;;10.50;80.30;;;;;;5062739;28;20176;-86
2021/05/25 08:55:55;;;;;;;2.20;1.63;;;10.70;77.00;;;;;;5064005;28;20207;-89
2021/05/25 08:58:22;;;;;;;3.70;1.43;;;10.70;75.30;;;;;;5061145;28;20201;-88
2021/05/25 09:00:52;;;;;;;2.57;1.57;;;10.70;75.60;;;;;;5055238;28;20478;-88
2021/05/25 09:03:19;;;;;;;1.80;1.53;;;10.80;75.80;;;;;;5044252;28;20173;-86
2021/05/25 09:05:58;;;;;;;2.03;1.47;;;10.90;75.30;;;;;;5056590;28;20243;-87
2021/05/25 09:08:24;;;;;;;3.37;2.20;;;11.10;76.30;;;;;;5063780;28;20203;-88
2021/05/25 09:10:51;;;;;;;5.17;1.60;;;11.40;74.30;;;;;;5052495;28;20181;-88
2021/05/25 09:13:20;;;;;;;3.37;1.53;;;11.30;74.10;;;;;;5038269;28;20177;-87
2021/05/25 09:15:55;;;;;;;2.00;1.80;;;11.40;76.30;;;;;;5060104;28;20233;-87
2021/05/25 09:18:23;;;;;;;1.73;1.60;;;11.60;74.00;;;;;;5063478;28;20283;-86
2021/05/25 09:20:51;;;;;;;2.53;1.40;;;11.60;71.90;;;;;;5034624;28;20196;-87
2021/05/25 09:23:21;;;;;;;4.47;1.70;;;11.80;72.20;;;;;;5023163;28;20185;-87
2021/05/25 09:28:31;;;;;;;2.77;1.70;;;12.00;71.80;;;;;;5062724;28;20191;-87
2021/05/25 09:30:57;;;;;;;4.47;1.80;;;12.20;72.00;;;;;;5044319;28;20195;-88
2021/05/25 09:33:23;;;;;;;2.80;1.70;;;12.30;68.20;;;;;;5025145;28;20196;-87
2021/05/25 09:35:50;;;;;;;1.73;1.40;;;12.40;70.20;;;;;;5052602;28;20216;-87
2021/05/25 09:38:27;;;;;;;1.70;1.60;;;12.50;67.30;;;;;;5043730;28;20717;-88
2021/05/25 09:40:58;;;;;;;1.60;1.50;;;12.90;69.20;;;;;;5046330;28;20189;-89
2021/05/25 09:43:32;;;;;;;1.70;1.60;;;13.00;65.30;;;;;;5044701;28;20196;-87
2021/05/25 09:46:15;;;;;;;1.90;1.53;;;12.80;66.90;;;;;;5051162;28;20283;-87
2021/05/25 09:48:43;;;;;;;2.83;1.70;;;13.20;63.80;;;;;;5046802;28;20191;-89
2021/05/25 09:51:39;;;;;;;2.00;1.37;;;13.40;63.90;;;;;;5060190;28;20824;-88
2021/05/25 09:54:22;;;;;;;3.10;1.90;;;13.40;63.70;;;;;;5043019;28;20270;-87
2021/05/25 09:56:59;;;;;;;1.53;1.43;;;13.40;65.70;;;;;;5049456;28;20283;-86
2021/05/25 09:59:35;;;;;;;5.57;1.80;;;13.40;63.60;;;;;;5058852;28;20263;-87
2021/05/25 10:02:20;;;;;;;3.23;1.63;;;13.50;63.40;;;;;;5065744;28;20229;-88
2021/05/25 10:05:02;;;;;;;3.00;1.40;;;13.60;60.80;;;;;;5066272;28;20231;-87
2021/05/25 10:07:29;;;;;;;3.37;1.70;;;13.30;61.80;;;;;;5060145;28;20311;-87
2021/05/25 10:09:56;;;;;;;4.53;1.93;;;13.00;63.90;;;;;;5047088;28;20177;-87
2021/05/25 10:12:29;;;;;;;2.13;1.60;;;13.00;62.20;;;;;;5045474;28;20227;-87
2021/05/25 10:14:55;;;;;;;2.37;1.70;;;13.40;63.10;;;;;;5064741;28;20191;-88
2021/05/25 10:20:04;;;;;;;3.77;1.73;;;13.30;61.30;;;;;;5045497;28;20181;-87
2021/05/25 10:22:30;;;;;;;4.97;2.10;;;13.20;62.40;;;;;;5048376;28;20176;-88
2021/05/25 10:24:57;;;;;;;1.60;1.50;;;13.40;63.60;;;;;;5049633;28;20180;-89
2021/05/25 10:27:27;;;;;;;2.93;1.50;;;13.20;63.10;;;;;;5055899;28;20224;-87
2021/05/25 10:29:53;;;;;;;4.40;1.73;;;12.90;60.60;;;;;;5072986;28;20177;-88
2021/05/25 10:32:24;;;;;;;4.27;1.97;;;13.10;61.40;;;;;;5055557;28;20194;-89
2021/05/25 10:34:53;;;;;;;2.33;1.90;;;13.40;62.50;;;;;;5039605;28;20201;-87
2021/05/25 10:37:20;;;;;;;3.00;2.30;;;13.40;63.80;;;;;;5078230;28;20231;-89
2021/05/25 10:39:52;;;;;;;4.80;1.83;;;13.30;63.70;;;;;;5072635;28;20173;-89
2021/05/25 10:42:27;;;;;;;4.40;1.90;;;13.30;59.90;;;;;;5038465;28;20180;-90
2021/05/25 10:44:57;;;;;;;4.60;2.17;;;13.80;59.50;;;;;;5046173;28;20578;-87
2021/05/25 10:47:34;;;;;;;6.53;5.27;;;14.10;58.20;;;;;;5071086;28;20251;-89
2021/05/25 10:52:56;;;;;;;3.10;1.90;;;14.40;57.20;;;;;;5063651;28;20177;-88
2021/05/25 10:55:34;;;;;;;4.03;2.13;;;14.40;56.70;;;;;;5058690;28;20181;-88
2021/05/25 10:58:31;;;;;;;4.07;1.90;;;14.40;57.10;;;;;;5058500;28;20201;-89
2021/05/25 11:00:58;;;;;;;4.43;1.77;;;14.20;55.80;;;;;;5048646;28;20195;-87
2021/05/25 11:03:28;;;;;;;1.73;1.60;;;14.60;56.00;;;;;;5064123;28;20237;-87
2021/05/25 11:05:56;;;;;;;3.30;1.77;;;14.40;55.30;;;;;;5061309;28;20963;-89
2021/05/25 11:08:25;;;;;;;2.77;1.73;;;14.40;56.60;;;;;;5050727;28;20186;-88
2021/05/25 11:10:57;;;;;;;2.53;1.73;;;14.60;54.20;;;;;;5036332;28;20205;-88
2021/05/25 11:13:29;;;;;;;6.90;3.27;;;15.10;56.00;;;;;;5027615;28;20283;-88
2021/05/25 11:16:26;;;;;;;3.30;1.93;;;15.20;51.30;;;;;;5048208;28;20216;-89
2021/05/25 11:19:01;;;;;;;2.50;1.80;;;14.70;54.50;;;;;;5049623;28;20183;-88
2021/05/25 11:24:35;;;;;;;4.77;2.10;;;13.70;63.60;;;;;;5052994;28;20193;-89
2021/05/25 11:27:28;;;;;;;4.33;2.97;;;13.10;69.20;;;;;;5040048;28;20247;-87
2021/05/25 11:29:59;;;;;;;3.10;2.07;;;12.30;76.40;;;;;;5031694;28;20180;-87
2021/05/25 11:32:27;;;;;;;3.70;1.73;;;12.10;77.10;;;;;;5056016;28;20274;-88
2021/05/25 11:35:02;;;;;;;2.73;1.70;;;11.90;73.30;;;;;;5061612;28;20756;-88
2021/05/25 11:37:32;;;;;;;4.87;1.83;;;12.00;76.30;;;;;;5041113;28;20219;-88
2021/05/25 11:39:58;;;;;;;2.60;1.80;;;12.60;75.30;;;;;;5046033;28;20172;-89
2021/05/25 11:42:26;;;;;;;3.43;1.90;;;13.10;73.60;;;;;;5064642;28;20187;-87
2021/05/25 11:44:53;;;;;;;3.97;1.87;;;13.70;68.90;;;;;;5058124;28;20199;-88
2021/05/25 11:47:19;;;;;;;3.53;1.70;;;14.00;64.90;;;;;;5053705;28;20547;-88
2021/05/25 11:49:45;;;;;;;4.90;1.87;;;14.20;67.30;;;;;;5039644;28;20200;-87
2021/05/25 11:57:53;;;;;;;10.23;2.53;;;14.50;60.60;;;;;;5077592;22;20237;-89
2021/05/25 12:00:25;;;;;;;4.77;2.30;;;14.40;61.50;;;;;;5055883;28;20197;-88
2021/05/25 12:02:55;;;;;;;3.00;2.00;;;14.50;62.40;;;;;;5060993;28;20235;-89
2021/05/25 12:05:29;;;;;;;6.17;3.47;;;14.60;59.70;;;;;;5056109;28;20679;-88
2021/05/25 12:07:58;;;;;;;4.53;3.33;;;15.10;65.90;;;;;;5042827;28;20746;-88
2021/05/25 12:10:28;;;;;;;5.33;2.07;;;15.30;64.30;;;;;;5055030;28;20191;-88
2021/05/25 12:13:01;;;;;;;4.57;2.20;;;14.90;62.90;;;;;;5038218;28;20204;-88
2021/05/25 12:15:27;;;;;;;4.27;2.27;;;14.60;62.70;;;;;;5057562;28;20159;-89
2021/05/25 12:17:55;;;;;;;7.40;2.20;;;14.40;58.80;;;;;;5039174;28;20226;-89
2021/05/25 12:20:37;;;;;;;4.40;2.00;;;14.60;55.50;;;;;;5058190;28;20179;-89
2021/05/25 12:23:07;;;;;;;3.30;1.73;;;14.70;55.20;;;;;;5077132;28;20201;-89
2021/05/25 12:25:34;;;;;;;5.93;2.07;;;15.00;56.30;;;;;;5078268;28;20174;-90
2021/05/25 12:28:07;;;;;;;2.10;1.70;;;14.70;56.50;;;;;;5067854;28;20217;-89
2021/05/25 12:30:33;;;;;;;5.37;1.90;;;14.40;55.60;;;;;;5059245;28;20234;-89
2021/05/25 12:33:00;;;;;;;3.50;1.80;;;14.70;56.80;;;;;;5058117;28;20211;-88
2021/05/25 12:35:28;;;;;;;2.20;1.80;;;15.10;56.00;;;;;;5041287;28;20183;-89
2021/05/25 12:38:05;;;;;;;2.63;2.10;;;15.70;53.00;;;;;;5058725;28;20215;-89
2021/05/25 12:40:32;;;;;;;5.43;1.73;;;16.20;50.70;;;;;;5073018;28;20187;-90
2021/05/25 12:42:58;;;;;;;3.00;1.70;;;15.90;52.50;;;;;;5079589;28;20205;-91
2021/05/25 12:45:30;;;;;;;3.50;2.00;;;15.30;52.80;;;;;;5080423;28;20263;-89
2021/05/25 12:48:00;;;;;;;4.27;2.07;;;15.00;53.20;;;;;;5076962;28;20185;-89
2021/05/25 12:50:37;;;;;;;1.90;1.60;;;14.40;54.20;;;;;;5041963;28;20275;-89
2021/05/25 12:53:11;;;;;;;6.67;2.03;;;14.30;56.10;;;;;;5060427;28;20197;-91
2021/05/25 12:56:02;;;;;;;5.10;1.67;;;13.70;66.50;;;;;;5080042;28;20690;-90
2021/05/25 12:58:41;;;;;;;4.93;1.87;;;12.50;69.60;;;;;;5063876;28;20243;-91
2021/05/25 13:01:42;;;;;;;3.60;2.13;;;12.00;74.40;;;;;;5083967;28;20202;-90
2021/05/25 13:04:46;;;;;;;4.63;2.07;;;12.10;75.50;;;;;;5057377;28;20172;-90
2021/05/25 13:07:15;;;;;;;4.63;2.40;;;12.90;77.00;;;;;;4973998;28;20195;-89
2021/05/25 13:09:43;;;;;;;4.83;2.27;;;13.40;75.60;;;;;;5049771;28;20533;-87
2021/05/25 13:12:14;;;;;;;3.23;1.70;;;13.90;72.50;;;;;;5070975;28;20982;-87
2021/05/25 13:14:40;;;;;;;2.87;1.80;;;14.30;73.40;;;;;;5069460;28;20173;-88
2021/05/25 13:17:14;;;;;;;2.27;1.57;;;14.40;73.50;;;;;;5072364;28;20218;-88